createdAt,value
2022-10-05T00:00:16.668Z,70.6429
2022-10-05T00:01:16.679Z,70.5714
2022-10-05T00:02:16.723Z,70.5714
2022-10-05T00:03:16.772Z,70.5714
2022-10-05T00:04:16.841Z,70.5
2022-10-05T00:05:16.863Z,70.5
2022-10-05T00:06:16.867Z,70.5
2022-10-05T00:07:16.917Z,70.4286
2022-10-05T00:08:16.942Z,70.2857
2022-10-05T00:09:16.979Z,70.2857
2022-10-05T00:10:17.026Z,70.2857
2022-10-05T00:11:17.044Z,70.2857
2022-10-05T00:12:17.093Z,70.3571
2022-10-05T00:13:17.111Z,70.4286
2022-10-05T00:14:17.157Z,70.5
2022-10-05T00:15:17.176Z,70.5714
2022-10-05T00:16:17.302Z,70.5714
2022-10-05T00:17:17.243Z,70.5
2022-10-05T00:18:17.276Z,70.5
2022-10-05T00:19:17.326Z,70.4286
2022-10-05T00:20:17.328Z,70.2857
2022-10-05T00:21:17.385Z,70.2143
2022-10-05T00:22:17.400Z,70.1429
2022-10-05T00:23:17.442Z,70.0714
2022-10-05T00:24:17.476Z,70.1429
2022-10-05T00:25:17.508Z,70.2857
2022-10-05T00:26:17.563Z,70.4286
2022-10-05T00:27:17.566Z,70.5714
2022-10-05T00:28:17.690Z,70.6429
2022-10-05T00:29:17.632Z,70.7143
2022-10-05T00:30:17.685Z,70.8571
2022-10-05T00:31:17.746Z,70.8571
2022-10-05T00:32:17.732Z,70.9286
2022-10-05T00:33:17.772Z,71
2022-10-05T00:34:17.826Z,71
2022-10-05T00:35:17.860Z,70.9286
2022-10-05T00:36:17.874Z,70.9286
2022-10-05T00:37:17.932Z,70.9286
2022-10-05T00:38:17.944Z,70.9286
2022-10-05T00:39:17.978Z,70.9286
2022-10-05T00:40:18.030Z,70.8571
2022-10-05T00:41:18.045Z,70.8571
2022-10-05T00:42:18.073Z,70.9286
2022-10-05T00:43:18.113Z,70.8571
2022-10-05T00:44:18.148Z,70.8571
2022-10-05T00:45:18.198Z,70.9286
2022-10-05T00:46:18.263Z,70.9286
2022-10-05T00:47:18.235Z,70.9286
2022-10-05T00:48:18.266Z,71
2022-10-05T00:49:18.300Z,71
2022-10-05T00:50:18.359Z,71.0714
2022-10-05T00:51:18.372Z,71.1429
2022-10-05T00:52:18.405Z,71.1429
2022-10-05T00:53:18.440Z,71.1429
2022-10-05T00:54:18.647Z,71.2143
2022-10-05T00:55:18.538Z,71.2857
2022-10-05T00:56:18.544Z,71.2857
2022-10-05T00:57:18.579Z,71.2857
2022-10-05T00:58:18.602Z,71.2857
2022-10-05T00:59:18.631Z,71.2857
2022-10-05T01:00:18.694Z,71.3571
2022-10-05T01:01:18.752Z,71.3571
2022-10-05T01:02:18.860Z,71.3571
2022-10-05T01:03:18.769Z,71.3571
2022-10-05T01:04:18.820Z,71.3571
2022-10-05T01:05:18.837Z,71.2857
2022-10-05T01:06:18.872Z,71.2857
2022-10-05T01:07:18.908Z,71.2857
2022-10-05T01:08:18.935Z,71.2857
2022-10-05T01:09:18.993Z,71.2857
2022-10-05T01:10:19.007Z,71.2143
2022-10-05T01:11:19.066Z,71.1429
2022-10-05T01:12:19.086Z,71.1429
2022-10-05T01:13:19.132Z,71.1429
2022-10-05T01:14:19.153Z,71.1429
2022-10-05T01:15:19.187Z,71.0714
2022-10-05T01:16:19.259Z,71.0714
2022-10-05T01:17:19.242Z,71
2022-10-05T01:18:19.272Z,71
2022-10-05T01:19:19.309Z,71
2022-10-05T01:20:19.359Z,71
2022-10-05T01:21:19.388Z,70.9286
2022-10-05T01:22:19.405Z,70.8571
2022-10-05T01:23:19.436Z,70.8571
2022-10-05T01:24:19.467Z,70.8571
2022-10-05T01:25:19.521Z,70.7857
2022-10-05T01:26:19.536Z,70.7143
2022-10-05T01:27:19.569Z,70.7143
2022-10-05T01:28:19.635Z,70.7143
2022-10-05T01:29:19.630Z,70.6429
2022-10-05T01:30:19.667Z,70.6429
2022-10-05T01:31:19.747Z,70.6429
2022-10-05T01:32:19.738Z,70.6429
2022-10-05T01:33:19.772Z,70.6429
2022-10-05T01:34:19.806Z,70.6429
2022-10-05T01:35:19.844Z,70.7143
2022-10-05T01:36:19.900Z,70.6429
2022-10-05T01:37:19.913Z,70.7143
2022-10-05T01:38:19.951Z,70.7143
2022-10-05T01:39:20.016Z,70.7143
2022-10-05T01:40:20.033Z,70.7857
2022-10-05T01:41:20.092Z,70.7857
2022-10-05T01:42:20.107Z,70.7857
2022-10-05T01:43:20.140Z,70.7857
2022-10-05T01:44:20.175Z,70.7857
2022-10-05T01:45:20.217Z,70.8571
2022-10-05T01:46:20.295Z,70.8571
2022-10-05T01:47:20.273Z,70.8571
2022-10-05T01:48:20.309Z,70.8571
2022-10-05T01:49:20.370Z,70.8571
2022-10-05T01:50:20.381Z,70.8571
2022-10-05T01:51:20.415Z,70.9286
2022-10-05T01:52:20.469Z,70.9286
2022-10-05T01:53:20.480Z,70.8571
2022-10-05T01:54:20.511Z,70.8571
2022-10-05T01:55:20.569Z,70.8571
2022-10-05T01:56:20.604Z,70.9286
2022-10-05T01:57:20.607Z,70.8571
2022-10-05T01:58:20.666Z,70.8571
2022-10-05T01:59:20.680Z,70.8571
2022-10-05T02:00:20.736Z,70.9286
2022-10-05T02:01:20.793Z,70.9286
2022-10-05T02:02:20.884Z,71
2022-10-05T02:03:20.840Z,71
2022-10-05T02:04:42.625Z,71
2022-10-05T02:05:20.882Z,71
2022-10-05T02:06:20.924Z,71
2022-10-05T02:07:20.952Z,71
2022-10-05T02:08:21.009Z,71.0714
2022-10-05T02:09:21.019Z,71.0714
2022-10-05T02:10:21.044Z,71.0714
2022-10-05T02:11:21.105Z,71.0714
2022-10-05T02:12:21.114Z,71.1429
2022-10-05T02:13:21.152Z,71.0714
2022-10-05T02:14:21.177Z,71
2022-10-05T02:15:21.213Z,70.9286
2022-10-05T02:16:21.357Z,70.9286
2022-10-05T02:17:21.292Z,70.8571
2022-10-05T02:18:21.354Z,70.8571
2022-10-05T02:19:21.365Z,70.7857
2022-10-05T02:20:21.424Z,70.7857
2022-10-05T02:21:21.445Z,70.7143
2022-10-05T02:22:21.461Z,70.7143
2022-10-05T02:23:21.501Z,70.6429
2022-10-05T02:24:21.534Z,70.6429
2022-10-05T02:25:21.593Z,70.6429
2022-10-05T02:26:21.607Z,70.6429
2022-10-05T02:27:21.635Z,70.6429
2022-10-05T02:28:21.725Z,70.6429
2022-10-05T02:29:21.731Z,70.6429
2022-10-05T02:30:21.744Z,70.5714
2022-10-05T02:31:21.830Z,70.5714
2022-10-05T02:32:21.809Z,70.5
2022-10-05T02:33:21.838Z,70.2857
2022-10-05T02:34:21.886Z,70.2857
2022-10-05T02:35:21.902Z,70.2143
2022-10-05T02:36:21.938Z,70.1429
2022-10-05T02:37:21.972Z,70.0714
2022-10-05T02:38:22.023Z,70
2022-10-05T02:39:22.032Z,70.0714
2022-10-05T02:40:22.067Z,70.1429
2022-10-05T02:41:22.093Z,70.0714
2022-10-05T02:42:22.128Z,70
2022-10-05T02:43:22.188Z,69.9286
2022-10-05T02:44:22.189Z,69.9286
2022-10-05T02:45:22.250Z,70
2022-10-05T02:46:22.393Z,70.1429
2022-10-05T02:47:22.274Z,70.1429
2022-10-05T02:48:22.315Z,70.1429
2022-10-05T02:49:22.350Z,70.0714
2022-10-05T02:50:22.401Z,69.9286
2022-10-05T02:51:22.418Z,69.8571
2022-10-05T02:52:22.453Z,69.7857
2022-10-05T02:53:22.519Z,70
2022-10-05T02:54:22.527Z,70.0714
2022-10-05T02:55:22.577Z,70.1429
2022-10-05T02:56:22.589Z,70.2143
2022-10-05T02:57:22.625Z,70.3571
2022-10-05T02:58:22.656Z,70.5714
2022-10-05T02:59:22.706Z,70.7857
2022-10-05T03:00:22.740Z,70.8571
2022-10-05T03:01:22.818Z,70.9286
2022-10-05T03:02:22.865Z,71
2022-10-05T03:03:22.825Z,71.0714
2022-10-05T03:04:22.864Z,71.0714
2022-10-05T03:05:22.916Z,71.0714
2022-10-05T03:06:22.949Z,71.1429
2022-10-05T03:07:22.961Z,71.2143
2022-10-05T03:08:23.020Z,71.2143
2022-10-05T03:09:23.029Z,71.2857
2022-10-05T03:10:23.062Z,71.3571
2022-10-05T03:11:23.093Z,71.4286
2022-10-05T03:12:23.125Z,71.4286
2022-10-05T03:13:23.183Z,71.4286
2022-10-05T03:14:23.197Z,71.4286
2022-10-05T03:15:23.228Z,71.4286
2022-10-05T03:16:23.352Z,71.3571
2022-10-05T03:17:23.300Z,71.3571
2022-10-05T03:18:26.364Z,71.2857
2022-10-05T03:19:23.361Z,71.2143
2022-10-05T03:20:23.392Z,71.1429
2022-10-05T03:21:23.420Z,71.1429
2022-10-05T03:22:23.453Z,71.1429
2022-10-05T03:23:23.481Z,71.1429
2022-10-05T03:24:23.517Z,71.2143
2022-10-05T03:25:23.572Z,71.1429
2022-10-05T03:26:23.588Z,71.1429
2022-10-05T03:27:23.626Z,71.1429
2022-10-05T03:28:23.752Z,71.1429
2022-10-05T03:29:23.706Z,71.0714
2022-10-05T03:30:23.754Z,71.0714
2022-10-05T03:31:23.887Z,71.0714
2022-10-05T03:32:23.810Z,71.0714
2022-10-05T03:33:23.827Z,71
2022-10-05T03:34:23.860Z,71
2022-10-05T03:35:23.894Z,71
2022-10-05T03:36:23.958Z,71
2022-10-05T03:37:23.970Z,71
2022-10-05T03:38:23.998Z,70.9286
2022-10-05T03:39:24.060Z,70.9286
2022-10-05T03:40:24.056Z,70.9286
2022-10-05T03:41:24.094Z,70.8571
2022-10-05T03:42:24.125Z,70.8571
2022-10-05T03:43:24.153Z,70.8571
2022-10-05T03:44:24.212Z,70.8571
2022-10-05T03:45:24.218Z,70.8571
2022-10-05T03:46:24.360Z,70.8571
2022-10-05T03:47:24.283Z,70.8571
2022-10-05T03:48:24.324Z,70.8571
2022-10-05T03:49:24.374Z,70.7857
2022-10-05T03:50:24.412Z,70.7143
2022-10-05T03:51:24.432Z,70.7143
2022-10-05T03:52:24.464Z,70.7143
2022-10-05T03:53:24.505Z,70.6429
2022-10-05T03:54:24.564Z,70.6429
2022-10-05T03:55:24.567Z,70.6429
2022-10-05T03:56:24.605Z,70.6429
2022-10-05T03:57:24.662Z,70.5714
2022-10-05T03:58:24.671Z,70.5
2022-10-05T03:59:28.846Z,70.5
2022-10-05T04:00:24.742Z,70.5
2022-10-05T04:01:24.826Z,70.4286
2022-10-05T04:02:24.966Z,70.3571
2022-10-05T04:03:24.876Z,70.3571
2022-10-05T04:04:24.887Z,70.3571
2022-10-05T04:05:24.946Z,70.3571
2022-10-05T04:06:24.952Z,70.3571
2022-10-05T04:07:25.008Z,70.3571
2022-10-05T04:08:25.021Z,70.3571
2022-10-05T04:09:25.048Z,70.3571
2022-10-05T04:10:25.080Z,70.3571
2022-10-05T04:11:25.124Z,70.3571
2022-10-05T04:12:25.175Z,70.3571
2022-10-05T04:13:25.180Z,70.2857
2022-10-05T04:14:25.226Z,70.2857
2022-10-05T04:15:25.251Z,70.2857
2022-10-05T04:16:25.328Z,70.2857
2022-10-05T04:17:25.344Z,70.2857
2022-10-05T04:18:25.361Z,70.2857
2022-10-05T04:19:25.396Z,70.3571
2022-10-05T04:20:25.428Z,70.3571
2022-10-05T04:21:25.461Z,70.3571
2022-10-05T04:22:25.521Z,70.3571
2022-10-05T04:23:25.535Z,70.3571
2022-10-05T04:24:25.572Z,70.3571
2022-10-05T04:25:25.614Z,70.4286
2022-10-05T04:26:25.643Z,70.4286
2022-10-05T04:27:25.703Z,70.4286
2022-10-05T04:28:29.651Z,70.4286
2022-10-05T04:29:25.750Z,70.4286
2022-10-05T04:30:25.776Z,70.4286
2022-10-05T04:31:25.876Z,70.4286
2022-10-05T04:32:25.845Z,70.4286
2022-10-05T04:33:25.903Z,70.4286
2022-10-05T04:34:25.915Z,70.3571
2022-10-05T04:35:25.952Z,70.3571
2022-10-05T04:36:25.990Z,70.3571
2022-10-05T04:37:26.026Z,70.2857
2022-10-05T04:38:26.060Z,70.2143
2022-10-05T04:39:26.092Z,70.2143
2022-10-05T04:40:26.130Z,70.1429
2022-10-05T04:41:26.186Z,70.0714
2022-10-05T04:42:26.191Z,70.0714
2022-10-05T04:43:26.229Z,70
2022-10-05T04:44:26.266Z,69.9286
2022-10-05T04:45:26.320Z,69.8571
2022-10-05T04:46:26.380Z,69.8571
2022-10-05T04:47:26.369Z,69.7857
2022-10-05T04:48:26.408Z,69.8571
2022-10-05T04:49:26.447Z,69.8571
2022-10-05T04:50:26.483Z,69.8571
2022-10-05T04:51:26.516Z,69.8571
2022-10-05T04:52:26.544Z,69.9286
2022-10-05T04:53:26.589Z,69.8571
2022-10-05T04:54:26.622Z,69.8571
2022-10-05T04:55:26.661Z,69.9286
2022-10-05T04:56:26.695Z,69.8571
2022-10-05T04:57:26.728Z,69.8571
2022-10-05T04:58:26.755Z,69.7857
2022-10-05T04:59:26.787Z,69.7857
2022-10-05T05:00:26.819Z,69.8571
2022-10-05T05:01:26.859Z,69.8571
2022-10-05T05:02:26.889Z,69.8571
2022-10-05T05:03:26.984Z,69.7857
2022-10-05T05:04:26.954Z,69.7143
2022-10-05T05:05:26.990Z,69.6429
2022-10-05T05:06:27.023Z,69.6429
2022-10-05T05:07:27.052Z,69.6429
2022-10-05T05:08:27.091Z,69.6429
2022-10-05T05:09:27.124Z,69.6429
2022-10-05T05:10:27.171Z,69.6429
2022-10-05T05:11:27.202Z,69.5714
2022-10-05T05:12:27.242Z,69.5714
2022-10-05T05:13:27.277Z,69.5714
2022-10-05T05:14:27.315Z,69.5714
2022-10-05T05:15:27.352Z,69.5714
2022-10-05T05:16:27.450Z,69.5
2022-10-05T05:17:27.431Z,69.5
2022-10-05T05:18:27.466Z,69.4286
2022-10-05T05:19:27.508Z,69.4286
2022-10-05T05:20:27.566Z,69.4286
2022-10-05T05:21:27.580Z,69.4286
2022-10-05T05:22:27.612Z,69.3571
2022-10-05T05:23:27.655Z,69.3571
2022-10-05T05:24:27.676Z,69.3571
2022-10-05T05:25:27.711Z,69.3571
2022-10-05T05:26:27.745Z,69.3571
2022-10-05T05:27:27.776Z,69.2857
2022-10-05T05:28:27.851Z,69.2857
2022-10-05T05:29:27.841Z,69.2857
2022-10-05T05:30:27.883Z,69.2857
2022-10-05T05:31:28.020Z,69.2857
2022-10-05T05:32:27.951Z,69.2857
2022-10-05T05:33:27.982Z,69.2143
2022-10-05T05:34:28.005Z,69.2857
2022-10-05T05:35:28.043Z,69.2143
2022-10-05T05:36:28.076Z,69.2143
2022-10-05T05:37:28.100Z,69.1429
2022-10-05T05:38:28.148Z,69.2143
2022-10-05T05:39:28.167Z,69.1429
2022-10-05T05:40:28.201Z,69.1429
2022-10-05T05:41:28.258Z,69.0714
2022-10-05T05:42:28.272Z,69.0714
2022-10-05T05:43:28.306Z,69.0714
2022-10-05T05:44:28.340Z,69
2022-10-05T05:45:28.382Z,69.0714
2022-10-05T05:46:51.116Z,69
2022-10-05T05:47:28.507Z,68.9286
2022-10-05T05:48:28.483Z,68.8571
2022-10-05T05:49:28.529Z,68.8571
2022-10-05T05:50:28.553Z,68.8571
2022-10-05T05:51:28.582Z,68.7857
2022-10-05T05:52:28.620Z,68.7857
2022-10-05T05:53:28.658Z,68.8571
2022-10-05T05:54:28.684Z,68.7857
2022-10-05T05:55:30.341Z,68.7857
2022-10-05T05:56:28.748Z,68.7857
2022-10-05T05:57:28.788Z,68.7857
2022-10-05T05:58:28.823Z,68.7857
2022-10-05T05:59:28.883Z,68.7857
2022-10-05T06:00:28.970Z,68.8571
2022-10-05T06:01:32.716Z,68.8571
2022-10-05T06:02:29.130Z,68.8571
2022-10-05T06:03:29.175Z,68.7857
2022-10-05T06:04:29.033Z,68.7857
2022-10-05T06:05:29.074Z,68.7857
2022-10-05T06:06:29.104Z,68.7857
2022-10-05T06:07:30.742Z,68.7143
2022-10-05T06:08:29.176Z,68.7143
2022-10-05T06:09:29.209Z,68.7143
2022-10-05T06:10:29.246Z,68.7143
2022-10-05T06:11:29.283Z,68.7857
2022-10-05T06:12:29.318Z,68.7857
2022-10-05T06:13:29.348Z,68.7143
2022-10-05T06:14:29.386Z,68.6429
2022-10-05T06:15:29.419Z,68.5714
2022-10-05T06:16:29.557Z,68.5
2022-10-05T06:17:29.485Z,68.5714
2022-10-05T06:18:29.511Z,68.5
2022-10-05T06:19:29.546Z,68.5
2022-10-05T06:20:29.576Z,68.4286
2022-10-05T06:21:29.597Z,68.3571
2022-10-05T06:22:29.634Z,68.3571
2022-10-05T06:23:29.673Z,68.3571
2022-10-05T06:24:29.708Z,68.2857
2022-10-05T06:25:29.752Z,68.2857
2022-10-05T06:26:29.788Z,68.2143
2022-10-05T06:27:29.824Z,68.2143
2022-10-05T06:28:29.901Z,68.1429
2022-10-05T06:29:29.888Z,68.0714
2022-10-05T06:30:29.925Z,68
2022-10-05T06:31:30.053Z,67.9286
2022-10-05T06:32:29.988Z,67.9286
2022-10-05T06:33:30.033Z,67.8571
2022-10-05T06:34:30.042Z,67.7143
2022-10-05T06:35:30.084Z,67.5
2022-10-05T06:36:30.115Z,67.3571
2022-10-05T06:37:30.152Z,67.3571
2022-10-05T06:38:30.185Z,67.2143
2022-10-05T06:39:30.207Z,67
2022-10-05T06:40:30.243Z,66.9286
2022-10-05T06:41:30.284Z,66.8571
2022-10-05T06:42:30.315Z,66.7857
2022-10-05T06:43:30.344Z,66.7143
2022-10-05T06:44:30.374Z,66.6429
2022-10-05T06:45:30.442Z,66.5714
2022-10-05T06:46:30.435Z,66.5714
2022-10-05T06:47:30.463Z,66.5
2022-10-05T06:48:30.487Z,66.4286
2022-10-05T06:49:30.519Z,66.3571
2022-10-05T06:50:30.558Z,66.2857
2022-10-05T06:51:30.597Z,66.2857
2022-10-05T06:52:30.634Z,66.2857
2022-10-05T06:53:30.662Z,66.2143
2022-10-05T06:54:30.694Z,66.1429
2022-10-05T06:55:30.719Z,66.0714
2022-10-05T06:56:30.749Z,65.8571
2022-10-05T06:57:30.778Z,65.7143
2022-10-05T06:58:30.809Z,65.7143
2022-10-05T06:59:30.845Z,65.7857
2022-10-05T07:00:30.888Z,65.7857
2022-10-05T07:01:30.981Z,65.7857
2022-10-05T07:02:30.985Z,65.9286
2022-10-05T07:03:30.982Z,65.8571
2022-10-05T07:04:35.974Z,65.9286
2022-10-05T07:05:31.041Z,65.8571
2022-10-05T07:06:31.076Z,65.9286
2022-10-05T07:07:31.111Z,65.8571
2022-10-05T07:08:31.149Z,65.8571
2022-10-05T07:09:31.181Z,65.9286
2022-10-05T07:10:31.221Z,65.8571
2022-10-05T07:11:31.257Z,65.8571
2022-10-05T07:12:31.292Z,65.8571
2022-10-05T07:13:31.319Z,65.7857
2022-10-05T07:14:31.352Z,65.7857
2022-10-05T07:15:31.384Z,65.7857
2022-10-05T07:16:31.466Z,65.7857
2022-10-05T07:17:31.463Z,65.7857
2022-10-05T07:18:31.478Z,65.8571
2022-10-05T07:19:31.518Z,65.6429
2022-10-05T07:20:31.566Z,65.6429
2022-10-05T07:21:31.596Z,65.6429
2022-10-05T07:22:33.520Z,65.5
2022-10-05T07:23:31.661Z,65.2857
2022-10-05T07:24:31.704Z,65.1429
2022-10-05T07:25:31.741Z,65.1429
2022-10-05T07:26:31.775Z,65
2022-10-05T07:27:31.803Z,65.0714
2022-10-05T07:28:31.914Z,65.1429
2022-10-05T07:29:31.871Z,65.0714
2022-10-05T07:30:31.961Z,65.1429
2022-10-05T07:31:32.001Z,65.0714
2022-10-05T07:32:31.988Z,65.0714
2022-10-05T07:33:32.018Z,64.9286
2022-10-05T07:34:32.052Z,64.7143
2022-10-05T07:35:32.094Z,64.6429
2022-10-05T07:36:32.118Z,64.4286
2022-10-05T07:37:32.150Z,64.2857
2022-10-05T07:38:32.184Z,64.1429
2022-10-05T07:39:55.287Z,64.0714
2022-10-05T07:40:32.242Z,63.8571
2022-10-05T07:41:32.272Z,63.7857
2022-10-05T07:42:32.301Z,63.6429
2022-10-05T07:43:51.147Z,63.5714
2022-10-05T07:44:32.375Z,62.9286
2022-10-05T07:45:32.467Z,62.7857
2022-10-05T07:46:32.447Z,62.8571
2022-10-05T07:47:32.488Z,62.8571
2022-10-05T07:48:32.520Z,62.7857
2022-10-05T07:49:32.560Z,62.5
2022-10-05T07:50:32.592Z,62.5
2022-10-05T07:51:32.621Z,62.2857
2022-10-05T07:52:34.617Z,62.3571
2022-10-05T07:53:32.679Z,62.2857
2022-10-05T07:54:32.716Z,62
2022-10-05T07:55:32.761Z,61.6429
2022-10-05T07:56:32.778Z,61.3571
2022-10-05T07:57:32.815Z,61.5714
2022-10-05T07:58:32.841Z,61.3571
2022-10-05T07:59:32.873Z,61.4286
2022-10-05T08:00:32.905Z,61.4286
2022-10-05T08:01:33.020Z,61.5
2022-10-05T08:02:33.079Z,61.5
2022-10-05T08:03:33.013Z,61.6429
2022-10-05T08:04:33.047Z,62
2022-10-05T08:05:33.071Z,62.0714
2022-10-05T08:06:33.103Z,61.6429
2022-10-05T08:07:33.129Z,61.3571
2022-10-05T08:08:33.158Z,61.5
2022-10-05T08:09:33.207Z,61.2143
2022-10-05T08:10:33.234Z,60.8571
2022-10-05T08:11:33.272Z,60.4286
2022-10-05T08:12:33.319Z,60.3571
2022-10-05T08:13:33.346Z,60.3571
2022-10-05T08:14:33.376Z,60.2143
2022-10-05T08:15:33.444Z,60.2143
2022-10-05T08:16:33.428Z,60.2143
2022-10-05T08:17:33.455Z,60.2143
2022-10-05T08:18:33.485Z,60.1429
2022-10-05T08:19:33.514Z,59.7143
2022-10-05T08:20:33.551Z,59.5714
2022-10-05T08:21:33.584Z,59.4286
2022-10-05T08:22:33.611Z,59.4286
2022-10-05T08:23:33.644Z,59.7857
2022-10-05T08:24:33.677Z,59.9286
2022-10-05T08:25:33.709Z,59.5714
2022-10-05T08:26:33.746Z,59.8571
2022-10-05T08:27:33.775Z,59.7143
2022-10-05T08:28:33.863Z,59.8571
2022-10-05T08:29:33.840Z,59.9286
2022-10-05T08:30:33.863Z,59.7143
2022-10-05T08:31:33.978Z,59.7143
2022-10-05T08:32:33.936Z,59.7143
2022-10-05T08:33:33.971Z,59.6429
2022-10-05T08:34:34.005Z,59
2022-10-05T08:35:34.072Z,58.7143
2022-10-05T08:36:34.068Z,58.7143
2022-10-05T08:37:34.104Z,58.9286
2022-10-05T08:38:34.135Z,58.7143
2022-10-05T08:39:34.171Z,58.8571
2022-10-05T08:40:34.205Z,58.7857
2022-10-05T08:41:34.235Z,58.7857
2022-10-05T08:42:34.323Z,58.8571
2022-10-05T08:43:35.467Z,58.9286
2022-10-05T08:44:34.318Z,58.6429
2022-10-05T08:45:34.358Z,58.9286
2022-10-05T08:46:34.489Z,58.7857
2022-10-05T08:47:34.424Z,58.6429
2022-10-05T08:48:34.451Z,58.5
2022-10-05T08:49:35.434Z,58.5
2022-10-05T08:50:34.516Z,58.6429
2022-10-05T08:51:34.556Z,58.2857
2022-10-05T08:52:34.593Z,58
2022-10-05T08:53:34.623Z,58.2857
2022-10-05T08:54:34.657Z,58.2143
2022-10-05T08:55:34.698Z,57.6429
2022-10-05T08:56:34.726Z,57.5714
2022-10-05T08:57:34.762Z,57.7143
2022-10-05T08:58:34.785Z,57.5
2022-10-05T08:59:34.827Z,57.5
2022-10-05T09:00:34.851Z,57.6429
2022-10-05T09:01:34.935Z,57.8571
2022-10-05T09:02:34.985Z,57.8571
2022-10-05T09:03:34.966Z,57.7143
2022-10-05T09:04:34.975Z,57.5714
2022-10-05T09:05:35.017Z,57.7143
2022-10-05T09:06:35.059Z,57.5
2022-10-05T09:07:36.108Z,57.3571
2022-10-05T09:08:35.113Z,57.5
2022-10-05T09:09:35.147Z,57.1429
2022-10-05T09:10:35.179Z,56.8571
2022-10-05T09:11:35.207Z,57.3571
2022-10-05T09:12:35.250Z,57.5714
2022-10-05T09:13:35.285Z,57.3571
2022-10-05T09:14:35.316Z,57.0714
2022-10-05T09:15:35.447Z,57.2857
2022-10-05T09:16:35.393Z,57.0714
2022-10-05T09:17:39.215Z,56.9286
2022-10-05T09:18:35.468Z,57.0714
2022-10-05T09:19:35.500Z,57.2143
2022-10-05T09:20:35.536Z,57.4286
2022-10-05T09:21:35.581Z,57.1429
2022-10-05T09:22:35.613Z,57.0714
2022-10-05T09:23:35.650Z,57.6429
2022-10-05T09:24:35.661Z,57.7857
2022-10-05T09:25:35.694Z,57.3571
2022-10-05T09:26:35.725Z,57
2022-10-05T09:27:35.760Z,57.0714
2022-10-05T09:28:35.811Z,57.4286
2022-10-05T09:29:35.812Z,57.3571
2022-10-05T09:30:35.848Z,57.1429
2022-10-05T09:31:35.884Z,57.2143
2022-10-05T09:32:35.915Z,56.7857
2022-10-05T09:33:35.944Z,56.8571
2022-10-05T09:34:35.981Z,56.7143
2022-10-05T09:35:36.011Z,56.4286
2022-10-05T09:36:36.042Z,55.9286
2022-10-05T09:37:36.068Z,55.8571
2022-10-05T09:38:36.098Z,56.2143
2022-10-05T09:39:36.133Z,56.6429
2022-10-05T09:40:36.196Z,56.5714
2022-10-05T09:41:36.197Z,56.5714
2022-10-05T09:42:36.240Z,57.2143
2022-10-05T09:43:36.274Z,57.5
2022-10-05T09:44:36.300Z,57.4286
2022-10-05T09:45:36.344Z,57.2857
2022-10-05T09:46:36.465Z,56.9286
2022-10-05T09:47:36.419Z,56.7143
2022-10-05T09:48:36.452Z,56.6429
2022-10-05T09:49:36.493Z,56.0714
2022-10-05T09:50:36.528Z,56.0714
2022-10-05T09:51:36.569Z,55.9286
2022-10-05T09:52:36.594Z,55.5714
2022-10-05T09:53:36.617Z,55.5
2022-10-05T09:54:36.652Z,55.7857
2022-10-05T09:55:36.694Z,55.8571
2022-10-05T09:56:36.732Z,55.4286
2022-10-05T09:57:36.752Z,55.4286
2022-10-05T09:58:36.791Z,55.7857
2022-10-05T09:59:36.831Z,55.7857
2022-10-05T10:00:36.853Z,55.8571
2022-10-05T10:01:36.990Z,56.3571
2022-10-05T10:02:37.019Z,56.7143
2022-10-05T10:03:36.944Z,56.7857
2022-10-05T10:04:36.974Z,56.8571
2022-10-05T10:05:37.005Z,57.3571
2022-10-05T10:06:37.042Z,57.9286
2022-10-05T10:07:37.070Z,57.9286
2022-10-05T10:08:37.101Z,57.7143
2022-10-05T10:09:38.804Z,57.4286
2022-10-05T10:10:37.160Z,57.1429
2022-10-05T10:11:37.205Z,57.5714
2022-10-05T10:12:37.241Z,57.7857
2022-10-05T10:13:37.267Z,57.7857
2022-10-05T10:14:37.373Z,57.5714
2022-10-05T10:15:37.453Z,57.2857
2022-10-05T10:16:37.381Z,57.2143
2022-10-05T10:17:37.415Z,58.0714
2022-10-05T10:18:37.443Z,58.2143
2022-10-05T10:19:37.492Z,58.2857
2022-10-05T10:20:37.525Z,58.5714
2022-10-05T10:21:37.567Z,59
2022-10-05T10:22:39.691Z,58.8571
2022-10-05T10:23:37.629Z,58.7143
2022-10-05T10:24:37.661Z,58.5
2022-10-05T10:25:37.702Z,58.1429
2022-10-05T10:26:37.752Z,58.5
2022-10-05T10:27:37.779Z,59.0714
2022-10-05T10:28:37.931Z,59.0714
2022-10-05T10:29:37.844Z,58.0714
2022-10-05T10:30:37.879Z,58.2857
2022-10-05T10:31:37.917Z,58.7143
2022-10-05T10:32:37.949Z,58.7143
2022-10-05T10:33:37.985Z,58.6429
2022-10-05T10:34:38.013Z,58.0714
2022-10-05T10:35:38.053Z,58
2022-10-05T10:36:38.086Z,57.7857
2022-10-05T10:37:38.123Z,57.4286
2022-10-05T10:38:38.156Z,57.2857
2022-10-05T10:39:38.183Z,57
2022-10-05T10:40:38.213Z,56.9286
2022-10-05T10:41:38.256Z,57
2022-10-05T10:42:38.281Z,57.2143
2022-10-05T10:43:38.316Z,57.7857
2022-10-05T10:44:38.347Z,57.4286
2022-10-05T10:45:38.381Z,56.7857
2022-10-05T10:46:38.473Z,56.6429
2022-10-05T10:47:38.448Z,57
2022-10-05T10:48:38.480Z,57.5
2022-10-05T10:49:38.517Z,57.8571
2022-10-05T10:50:38.546Z,57.8571
2022-10-05T10:51:38.585Z,58.4286
2022-10-05T10:52:38.614Z,58.7857
2022-10-05T10:53:38.656Z,57.7857
2022-10-05T10:54:38.688Z,57.6429
2022-10-05T10:55:38.716Z,56.8571
2022-10-05T10:56:38.768Z,56
2022-10-05T10:57:38.783Z,55.8571
2022-10-05T10:58:38.821Z,56.0714
2022-10-05T10:59:38.852Z,56.5
2022-10-05T11:00:38.882Z,56
2022-10-05T11:01:38.949Z,55.9286
2022-10-05T11:02:39.048Z,56.5
2022-10-05T11:03:38.978Z,56.7143
2022-10-05T11:04:39.014Z,56.4286
2022-10-05T11:05:39.053Z,56.0714
2022-10-05T11:06:39.088Z,56.2857
2022-10-05T11:07:39.118Z,56.1429
2022-10-05T11:08:39.158Z,56.2857
2022-10-05T11:09:39.192Z,56.5714
2022-10-05T11:10:39.231Z,56.2143
2022-10-05T11:11:39.273Z,56.3571
2022-10-05T11:12:39.304Z,56.2857
2022-10-05T11:13:39.342Z,56.3571
2022-10-05T11:14:39.375Z,56.2143
2022-10-05T11:15:39.484Z,55.7857
2022-10-05T11:16:39.443Z,55.8571
2022-10-05T11:17:39.483Z,56.2143
2022-10-05T11:18:39.511Z,56.2857
2022-10-05T11:19:46.306Z,56.5714
2022-10-05T11:20:39.579Z,57.0714
2022-10-05T11:21:39.607Z,57.6429
2022-10-05T11:22:39.641Z,57.7857
2022-10-05T11:23:39.672Z,57.8571
2022-10-05T11:24:39.700Z,58.2143
2022-10-05T11:25:39.732Z,57.5
2022-10-05T11:26:39.766Z,57.1429
2022-10-05T11:27:39.802Z,56.7857
2022-10-05T11:28:39.875Z,57
2022-10-05T11:29:39.858Z,56.3571
2022-10-05T11:30:39.892Z,56.7143
2022-10-05T11:31:39.982Z,57.2857
2022-10-05T11:32:39.970Z,57.2857
2022-10-05T11:33:40.002Z,57.5
2022-10-05T11:34:40.036Z,57.4286
2022-10-05T11:35:40.067Z,57.1429
2022-10-05T11:36:40.108Z,57.5
2022-10-05T11:37:40.126Z,57.3571
2022-10-05T11:38:40.161Z,57.1429
2022-10-05T11:39:40.193Z,57.2857
2022-10-05T11:40:40.231Z,57.7143
2022-10-05T11:41:40.263Z,57.7857
2022-10-05T11:42:40.303Z,58.0714
2022-10-05T11:43:40.347Z,57.4286
2022-10-05T11:44:40.380Z,57.2857
2022-10-05T11:45:40.418Z,57.0714
2022-10-05T11:46:40.508Z,57.0714
2022-10-05T11:47:40.478Z,56.8571
2022-10-05T11:48:40.519Z,56.5714
2022-10-05T11:49:40.549Z,56.6429
2022-10-05T11:50:40.579Z,57
2022-10-05T11:51:40.613Z,57.0714
2022-10-05T11:52:40.653Z,57.5714
2022-10-05T11:53:40.684Z,57.5714
2022-10-05T11:55:05.953Z,57.5
2022-10-05T11:55:40.748Z,57.6429
2022-10-05T11:56:40.773Z,57.2857
2022-10-05T11:57:40.810Z,57.2857
2022-10-05T11:58:40.834Z,57.1429
2022-10-05T11:59:40.869Z,57.0714
2022-10-05T12:00:40.904Z,56.9286
2022-10-05T12:01:40.936Z,57.3571
2022-10-05T12:02:42.928Z,57.5
2022-10-05T12:03:41.120Z,57.9286
2022-10-05T12:04:41.046Z,57.6429
2022-10-05T12:05:41.082Z,57.7857
2022-10-05T12:06:41.117Z,57.7143
2022-10-05T12:07:41.154Z,57.1429
2022-10-05T12:08:41.191Z,57.3571
2022-10-05T12:09:41.227Z,57.4286
2022-10-05T12:10:41.262Z,55.7857
2022-10-05T12:11:41.302Z,55.5714
2022-10-05T12:12:41.333Z,55.7143
2022-10-05T12:13:41.515Z,56.0714
2022-10-05T12:14:41.404Z,56.5
2022-10-05T12:15:41.474Z,56.3571
2022-10-05T12:16:41.474Z,56.2143